Time;durP1;ratioP1;P1;durP2;ratioP2;P2;SDS_P1;SDS_P2;PMS_P1;PMS_P2;Temp;Humidity;BMP_temperature;BMP_pressure;BME280_temperature;BME280_humidity;BME280_pressure;Samples;Min_cycle;Max_cycle;Signal;HPM_P1;HPM_P2
2023/08/02 00:00:32;;;;;;;4.03;2.73;;;14.20;1.00;;;;;;8241031;28;20190;-68
2023/08/02 00:04:33;;;;;;;3.53;3.07;;;14.20;1.00;;;;;;8238758;28;20223;-71
2023/08/02 00:08:34;;;;;;;4.00;3.03;;;14.20;1.00;;;;;;8235759;28;20215;-72
2023/08/02 00:12:35;;;;;;;5.27;2.83;;;14.20;1.00;;;;;;8236028;28;20274;-69
2023/08/02 00:16:36;;;;;;;3.63;3.17;;;14.20;1.00;;;;;;8242907;28;20203;-70
2023/08/02 00:20:38;;;;;;;3.57;2.90;;;14.20;1.00;;;;;;8245233;28;20211;-70
2023/08/02 00:24:39;;;;;;;4.20;2.83;;;14.20;34.20;;;;;;8239725;28;20286;-68
2023/08/02 00:28:39;;;;;;;3.63;3.30;;;14.30;1.00;;;;;;8236145;28;20199;-69
2023/08/02 00:32:45;;;;;;;7.63;3.10;;;14.30;99.90;;;;;;8245402;28;20210;-66
2023/08/02 00:36:46;;;;;;;3.93;2.83;;;14.30;99.90;;;;;;8246777;28;20188;-66
2023/08/02 00:40:46;;;;;;;4.90;3.00;;;14.30;1.00;;;;;;8247810;28;20729;-69
2023/08/02 00:44:47;;;;;;;6.53;2.77;;;14.30;1.00;;;;;;8251889;28;20194;-67
2023/08/02 00:48:48;;;;;;;5.03;3.07;;;14.20;99.90;;;;;;8247614;28;20224;-68
2023/08/02 00:52:51;;;;;;;6.53;3.00;;;14.20;99.90;;;;;;8245447;28;20234;-65
2023/08/02 00:56:51;;;;;;;4.77;2.67;;;14.20;99.90;;;;;;8244869;28;20219;-69
2023/08/02 01:00:52;;;;;;;4.30;2.87;;;14.20;99.90;;;;;;8256987;28;20187;-71
2023/08/02 01:04:53;;;;;;;7.27;3.10;;;14.10;99.90;;;;;;8245314;28;20180;-70
2023/08/02 01:09:35;;;;;;;3.93;2.90;;;14.10;1.00;;;;;;8239945;28;20684;-70
2023/08/02 01:13:42;;;;;;;6.73;2.73;;;14.00;1.00;;;;;;8242239;28;20230;-68
2023/08/02 01:17:43;;;;;;;3.47;2.47;;;14.00;99.90;;;;;;8244094;28;20249;-68
2023/08/02 01:21:44;;;;;;;3.53;3.00;;;14.00;99.90;;;;;;8247835;28;20191;-67
2023/08/02 01:25:47;;;;;;;4.27;2.77;;;14.00;99.90;;;;;;8242982;28;20276;-69
2023/08/02 01:29:51;;;;;;;3.83;2.83;;;14.00;99.90;;;;;;8249880;28;20185;-67
2023/08/02 01:33:55;;;;;;;5.23;2.90;;;13.90;99.90;;;;;;8244036;28;20220;-70
2023/08/02 01:37:56;;;;;;;4.90;2.90;;;13.90;99.90;;;;;;8240563;28;20180;-66
2023/08/02 01:41:57;;;;;;;5.30;2.90;;;14.00;99.90;;;;;;8258983;28;20199;-70
2023/08/02 01:45:58;;;;;;;3.23;2.40;;;14.00;99.90;;;;;;8243548;28;20289;-68
2023/08/02 01:49:58;;;;;;;6.20;3.00;;;14.00;99.90;;;;;;8242468;28;20219;-69
2023/08/02 01:53:59;;;;;;;3.67;2.93;;;14.10;60.30;;;;;;8245765;28;20238;-71
2023/08/02 01:58:00;;;;;;;3.60;2.37;;;14.20;1.00;;;;;;8241419;28;20211;-60
2023/08/02 02:02:00;;;;;;;3.40;2.57;;;14.30;1.00;;;;;;8243972;28;20195;-69
2023/08/02 02:06:01;;;;;;;3.77;2.77;;;14.40;99.90;;;;;;8241292;28;20195;-70
2023/08/02 02:10:02;;;;;;;3.20;2.43;;;14.50;99.90;;;;;;8242736;28;20731;-69
2023/08/02 02:14:03;;;;;;;4.27;2.63;;;14.50;99.90;;;;;;8237491;28;20443;-65
2023/08/02 02:18:03;;;;;;;3.27;2.40;;;14.50;99.90;;;;;;8252664;28;20196;-70
2023/08/02 02:22:04;;;;;;;4.70;2.70;;;14.50;59.10;;;;;;8240395;28;20666;-66
2023/08/02 02:26:05;;;;;;;3.13;2.50;;;14.60;44.80;;;;;;8232352;28;20196;-65
2023/08/02 02:30:06;;;;;;;4.77;2.20;;;14.60;15.60;;;;;;8243289;28;20297;-67
2023/08/02 02:34:07;;;;;;;4.37;2.70;;;14.60;3.30;;;;;;8242818;28;20248;-69
2023/08/02 02:38:08;;;;;;;3.13;2.17;;;14.50;1.00;;;;;;8243599;28;20184;-68
2023/08/02 02:42:08;;;;;;;4.50;2.20;;;14.40;1.00;;;;;;8241423;28;20192;-69
2023/08/02 02:46:09;;;;;;;3.80;2.53;;;14.30;4.60;;;;;;8243398;28;20221;-69
2023/08/02 02:50:10;;;;;;;3.23;2.57;;;14.30;46.10;;;;;;8243236;28;20196;-70
2023/08/02 02:54:10;;;;;;;3.30;2.40;;;14.20;99.90;;;;;;8241571;28;20215;-70
2023/08/02 02:58:11;;;;;;;7.73;2.53;;;14.20;99.90;;;;;;8241646;28;20573;-70
2023/08/02 03:02:12;;;;;;;3.37;2.20;;;14.20;99.90;;;;;;8240224;28;20274;-68
2023/08/02 03:06:12;;;;;;;3.83;2.20;;;14.20;99.90;;;;;;8245664;28;20195;-67
2023/08/02 03:10:13;;;;;;;4.13;2.17;;;14.10;99.90;;;;;;8241973;28;20209;-64
2023/08/02 03:14:14;;;;;;;5.40;2.70;;;14.00;99.90;;;;;;8242653;28;20214;-62
2023/08/02 03:18:15;;;;;;;3.80;2.10;;;13.90;99.90;;;;;;8246233;28;20195;-63
2023/08/02 03:22:15;;;;;;;2.77;2.07;;;13.80;99.90;;;;;;8242395;28;20191;-64
2023/08/02 03:26:16;;;;;;;3.30;2.37;;;13.80;1.00;;;;;;8232399;28;20187;-61
2023/08/02 03:30:17;;;;;;;2.63;2.27;;;13.70;1.00;;;;;;8250514;28;20203;-64
2023/08/02 03:34:18;;;;;;;2.07;1.87;;;13.70;14.80;;;;;;8229482;28;20216;-64
2023/08/02 03:38:18;;;;;;;2.80;2.40;;;13.70;99.90;;;;;;8239122;28;20188;-62
2023/08/02 03:42:19;;;;;;;2.43;1.93;;;13.80;99.90;;;;;;8246873;28;20278;-61
2023/08/02 03:46:20;;;;;;;4.00;1.93;;;13.90;99.90;;;;;;8237064;28;20283;-60
2023/08/02 03:50:21;;;;;;;3.73;2.10;;;14.00;99.90;;;;;;8249024;28;20187;-62
2023/08/02 03:54:21;;;;;;;4.13;2.53;;;14.20;99.90;;;;;;8238693;28;20314;-62
2023/08/02 03:58:22;;;;;;;4.20;2.30;;;14.40;1.00;;;;;;8237711;28;20282;-65
2023/08/02 04:02:23;;;;;;;2.10;1.90;;;14.70;99.90;;;;;;8236061;28;20188;-65
2023/08/02 04:06:23;;;;;;;3.53;2.03;;;15.20;99.90;;;;;;8237057;28;20269;-63
2023/08/02 04:10:24;;;;;;;2.73;1.97;;;16.40;1.00;;;;;;8244043;28;20208;-61
2023/08/02 04:14:25;;;;;;;2.53;1.40;;;16.70;99.90;;;;;;8247594;28;20210;-65
2023/08/02 04:18:26;;;;;;;2.73;1.73;;;16.60;99.90;;;;;;8244128;28;20229;-62
2023/08/02 04:22:30;;;;;;;4.30;1.70;;;16.30;99.90;;;;;;8247479;28;20198;-60
2023/08/02 04:26:31;;;;;;;3.80;1.90;;;16.20;99.90;;;;;;8247705;28;20267;-61
2023/08/02 04:30:31;;;;;;;3.00;2.00;;;16.10;91.50;;;;;;8247570;28;20192;-62
2023/08/02 04:34:32;;;;;;;2.60;1.97;;;16.10;81.50;;;;;;8248725;28;20211;-64
2023/08/02 04:38:33;;;;;;;3.37;2.23;;;16.20;73.30;;;;;;8242019;28;20187;-61
2023/08/02 04:42:34;;;;;;;2.90;2.60;;;16.20;51.00;;;;;;8245857;28;20188;-62
2023/08/02 04:46:35;;;;;;;4.00;2.60;;;16.30;20.10;;;;;;8245715;28;20195;-63
2023/08/02 04:50:35;;;;;;;3.17;2.53;;;16.40;7.30;;;;;;8248642;28;20234;-61
2023/08/02 04:54:36;;;;;;;4.80;3.00;;;16.50;1.00;;;;;;8235983;28;20212;-63
2023/08/02 04:58:37;;;;;;;3.03;2.30;;;16.60;1.00;;;;;;8243461;28;20192;-62
2023/08/02 05:02:37;;;;;;;2.93;2.27;;;16.60;1.00;;;;;;8248356;28;20196;-61
2023/08/02 05:06:38;;;;;;;2.60;1.73;;;16.80;1.00;;;;;;8239846;28;20203;-61
2023/08/02 05:10:39;;;;;;;2.87;1.80;;;17.00;1.00;;;;;;8249307;28;20215;-61
2023/08/02 05:14:40;;;;;;;3.00;1.50;;;17.20;1.00;;;;;;8247472;28;20219;-63
2023/08/02 05:18:41;;;;;;;2.63;1.53;;;17.30;1.00;;;;;;8244174;28;20242;-62
2023/08/02 05:22:42;;;;;;;1.60;1.30;;;17.40;1.00;;;;;;8242373;28;20188;-61
2023/08/02 05:26:42;;;;;;;2.00;1.33;;;17.60;1.00;;;;;;8243957;28;20191;-63
2023/08/02 05:30:43;;;;;;;1.87;1.37;;;17.70;1.00;;;;;;8252233;28;20184;-67
2023/08/02 05:34:44;;;;;;;4.20;1.47;;;17.80;1.00;;;;;;8244160;28;20218;-66
2023/08/02 05:38:45;;;;;;;3.60;1.30;;;17.90;1.00;;;;;;8243169;28;20212;-65
2023/08/02 05:42:46;;;;;;;2.00;1.30;;;17.90;1.00;;;;;;8242997;28;20282;-66
2023/08/02 05:46:47;;;;;;;2.70;1.60;;;18.00;1.00;;;;;;8240241;28;20196;-66
2023/08/02 05:50:47;;;;;;;3.83;1.50;;;18.10;1.00;;;;;;8252555;28;20206;-63
2023/08/02 05:54:48;;;;;;;2.57;1.33;;;18.30;1.00;;;;;;8243638;28;20246;-62
2023/08/02 05:58:49;;;;;;;1.83;1.20;;;18.60;1.00;;;;;;8233477;28;20191;-63
2023/08/02 06:02:49;;;;;;;3.77;1.40;;;18.80;1.00;;;;;;8248481;28;20192;-62
2023/08/02 06:06:51;;;;;;;1.57;1.20;;;18.90;1.00;;;;;;8242953;28;20215;-63
2023/08/02 06:10:52;;;;;;;2.60;1.37;;;18.80;1.00;;;;;;8249842;28;20203;-62
2023/08/02 06:14:52;;;;;;;1.43;1.10;;;18.90;1.00;;;;;;8242717;28;20496;-61
2023/08/02 06:18:53;;;;;;;3.53;1.20;;;19.20;1.00;;;;;;8246374;28;20199;-63
2023/08/02 06:22:54;;;;;;;6.10;1.37;;;19.60;1.00;;;;;;8244948;28;20195;-63
2023/08/02 06:26:54;;;;;;;1.60;1.10;;;20.10;1.00;;;;;;8242529;28;20199;-63
2023/08/02 06:30:55;;;;;;;5.37;1.30;;;20.50;1.00;;;;;;8238347;28;20192;-64
2023/08/02 06:34:56;;;;;;;3.67;1.07;;;20.80;1.00;;;;;;8235334;28;20207;-62
2023/08/02 06:38:57;;;;;;;1.67;1.17;;;21.00;1.00;;;;;;8242564;28;20195;-62
2023/08/02 06:42:57;;;;;;;2.60;1.07;;;21.20;99.90;;;;;;8238626;28;20310;-62
2023/08/02 06:46:58;;;;;;;2.73;1.10;;;20.80;99.90;;;;;;8231805;28;20191;-62
2023/08/02 06:51:00;;;;;;;5.57;1.40;;;20.80;99.90;;;;;;8237294;28;20239;-62
2023/08/02 06:55:00;;;;;;;2.53;0.90;;;21.10;99.90;;;;;;8236178;28;20277;-66
2023/08/02 06:59:01;;;;;;;1.43;1.00;;;20.90;99.90;;;;;;8234369;28;20188;-68
2023/08/02 07:03:03;;;;;;;3.50;1.03;;;20.60;99.90;;;;;;8230053;28;20278;-68
2023/08/02 07:07:05;;;;;;;3.30;1.30;;;20.10;99.90;;;;;;8235244;28;20199;-66
2023/08/02 07:11:06;;;;;;;3.30;1.70;;;19.90;99.90;;;;;;8240339;28;20229;-67
2023/08/02 07:15:07;;;;;;;4.10;1.17;;;19.70;99.90;;;;;;8233130;28;20565;-67
2023/08/02 07:19:08;;;;;;;6.07;1.50;;;19.90;99.90;;;;;;8235415;28;20689;-67
2023/08/02 07:23:09;;;;;;;4.90;1.40;;;20.00;99.90;;;;;;8235067;28;20504;-68
2023/08/02 07:27:10;;;;;;;2.63;1.10;;;20.00;99.90;;;;;;8234484;28;20195;-68
2023/08/02 07:31:12;;;;;;;2.10;1.13;;;20.20;99.90;;;;;;8240234;28;20253;-65
2023/08/02 07:35:13;;;;;;;2.10;0.93;;;20.70;99.90;;;;;;8232607;28;20231;-66
2023/08/02 07:39:14;;;;;;;4.47;0.93;;;20.90;99.90;;;;;;8230060;28;20211;-67
2023/08/02 07:43:14;;;;;;;2.40;1.20;;;20.80;99.90;;;;;;8242394;28;20195;-68
2023/08/02 07:47:15;;;;;;;4.43;0.90;;;20.80;99.90;;;;;;8243382;28;20191;-65
2023/08/02 07:51:16;;;;;;;2.50;1.00;;;20.80;99.90;;;;;;8240889;28;20283;-69
2023/08/02 07:55:17;;;;;;;7.60;1.40;;;21.10;99.90;;;;;;8241749;28;20218;-67
2023/08/02 07:59:17;;;;;;;2.63;1.13;;;21.20;99.90;;;;;;8240223;28;20231;-65
2023/08/02 08:03:18;;;;;;;4.53;1.23;;;21.60;99.90;;;;;;8246527;28;20314;-68
2023/08/02 08:07:19;;;;;;;3.00;1.20;;;22.10;99.90;;;;;;8242176;28;20215;-66
2023/08/02 08:11:20;;;;;;;2.23;1.10;;;22.30;99.90;;;;;;8241858;28;20222;-64
2023/08/02 08:15:21;;;;;;;3.17;1.10;;;22.70;99.90;;;;;;8246155;28;20223;-63
2023/08/02 08:19:21;;;;;;;4.03;1.10;;;22.90;99.90;;;;;;8246497;28;20191;-63
2023/08/02 08:23:22;;;;;;;2.93;1.27;;;22.80;99.90;;;;;;8255761;28;20187;-62
2023/08/02 08:27:25;;;;;;;1.60;0.80;;;22.60;99.90;;;;;;8244318;28;20196;-67
2023/08/02 08:31:28;;;;;;;6.03;1.33;;;23.00;99.90;;;;;;8247678;28;20215;-66
2023/08/02 08:35:32;;;;;;;2.53;1.10;;;23.10;99.90;;;;;;8245278;28;20220;-66
2023/08/02 08:39:34;;;;;;;1.83;1.20;;;23.50;99.90;;;;;;8243193;28;20192;-66
2023/08/02 08:43:36;;;;;;;2.87;1.07;;;23.90;99.90;;;;;;8238086;28;20214;-67
2023/08/02 08:47:38;;;;;;;1.43;0.90;;;24.20;99.90;;;;;;8246173;28;20227;-66
2023/08/02 08:51:45;;;;;;;2.33;1.00;;;24.50;99.90;;;;;;8233848;28;20387;-66
2023/08/02 08:55:51;;;;;;;1.37;0.80;;;24.80;99.90;;;;;;8240358;28;20216;-66
2023/08/02 08:59:52;;;;;;;1.40;0.80;;;25.20;99.90;;;;;;8239934;28;20199;-68
2023/08/02 09:03:55;;;;;;;3.45;1.00;;;25.40;99.90;;;;;;8239840;28;20192;-67
2023/08/02 09:07:58;;;;;;;3.80;0.90;;;25.50;99.90;;;;;;8244116;28;20188;-67
2023/08/02 09:11:59;;;;;;;3.92;0.90;;;25.50;99.90;;;;;;8252924;28;20199;-67
2023/08/02 09:16:08;;;;;;;3.75;1.00;;;25.40;99.90;;;;;;8242867;28;20206;-68
2023/08/02 09:20:09;;;;;;;2.55;0.60;;;25.50;99.90;;;;;;8252782;28;20175;-66
2023/08/02 09:24:10;;;;;;;2.45;0.77;;;25.70;99.90;;;;;;8241667;28;20286;-68
2023/08/02 09:28:11;;;;;;;3.20;0.80;;;25.80;99.90;;;;;;8241258;28;20195;-68
2023/08/02 09:32:12;;;;;;;2.92;0.73;;;25.90;99.90;;;;;;8245292;28;20243;-65
2023/08/02 09:36:30;;;;;;;2.67;0.90;;;25.60;99.90;;;;;;8245166;28;20185;-67
2023/08/02 09:40:36;;;;;;;1.10;0.52;;;25.40;99.90;;;;;;8238936;28;20184;-66
2023/08/02 09:44:36;;;;;;;1.85;1.00;;;25.60;99.90;;;;;;8260155;28;20189;-65
2023/08/02 09:48:37;;;;;;;2.25;0.70;;;25.70;99.90;;;;;;8236289;28;20191;-65
2023/08/02 09:52:40;;;;;;;1.77;0.80;;;25.90;99.90;;;;;;8225170;28;20217;-65
2023/08/02 09:56:42;;;;;;;2.53;0.68;;;26.00;99.90;;;;;;8239392;28;20214;-68
2023/08/02 10:00:43;;;;;;;3.28;1.33;;;26.40;99.90;;;;;;8236435;28;20194;-66
2023/08/02 10:04:45;;;;;;;1.40;0.80;;;26.20;99.90;;;;;;8239352;28;20211;-68
2023/08/02 10:08:47;;;;;;;2.20;0.85;;;26.60;99.90;;;;;;8228467;28;20207;-68
2023/08/02 10:12:56;;;;;;;2.75;0.90;;;26.70;99.90;;;;;;8235446;28;20219;-68
2023/08/02 10:17:02;;;;;;;2.08;1.27;;;26.70;99.90;;;;;;8242003;28;20249;-68
2023/08/02 10:21:05;;;;;;;2.30;1.00;;;26.40;99.90;;;;;;8238087;28;20187;-67
2023/08/02 10:25:06;;;;;;;3.42;1.58;;;26.30;99.90;;;;;;8242326;28;20263;-65
2023/08/02 10:29:08;;;;;;;1.65;0.82;;;26.30;99.90;;;;;;8241216;28;20299;-66
2023/08/02 10:33:20;;;;;;;3.92;1.30;;;26.30;99.90;;;;;;8236310;28;20609;-66
2023/08/02 10:37:21;;;;;;;2.97;0.80;;;26.40;99.90;;;;;;8245039;28;20180;-68
2023/08/02 10:41:27;;;;;;;2.55;1.08;;;26.50;99.90;;;;;;8248725;28;20306;-69
2023/08/02 10:45:28;;;;;;;1.10;0.80;;;26.80;99.90;;;;;;8239203;28;20284;-67
2023/08/02 10:49:31;;;;;;;1.70;0.93;;;26.90;99.90;;;;;;8240618;28;20192;-66
2023/08/02 10:53:32;;;;;;;2.72;1.25;;;26.90;99.90;;;;;;8235602;28;20212;-67
2023/08/02 10:57:34;;;;;;;3.55;0.98;;;27.10;99.90;;;;;;8236464;28;20195;-67
2023/08/02 11:01:34;;;;;;;2.90;1.08;;;26.90;99.90;;;;;;8236239;28;20184;-67
2023/08/02 11:05:46;;;;;;;1.67;1.05;;;26.80;99.90;;;;;;8238283;28;20242;-69
2023/08/02 11:09:55;;;;;;;2.08;0.77;;;26.50;99.90;;;;;;8239838;28;20227;-65
2023/08/02 11:13:56;;;;;;;3.65;1.00;;;27.00;99.90;;;;;;8242945;28;20204;-68
2023/08/02 11:17:57;;;;;;;3.33;1.00;;;27.60;99.90;;;;;;8233081;28;20234;-68
2023/08/02 11:22:01;;;;;;;2.95;0.80;;;27.60;99.90;;;;;;8239952;28;20199;-67
2023/08/02 11:26:13;;;;;;;3.25;1.00;;;27.60;99.90;;;;;;8232045;28;20189;-67
2023/08/02 11:30:20;;;;;;;1.50;0.85;;;27.60;99.90;;;;;;8236258;28;20197;-67
2023/08/02 11:34:21;;;;;;;2.08;0.80;;;27.70;99.90;;;;;;8231817;28;20330;-66
2023/08/02 11:38:23;;;;;;;2.15;0.80;;;27.60;99.90;;;;;;8245712;28;20194;-68
2023/08/02 11:42:25;;;;;;;2.92;1.10;;;27.30;99.90;;;;;;8239810;28;20292;-66
2023/08/02 11:46:26;;;;;;;2.05;1.20;;;27.00;99.90;;;;;;8228457;28;20206;-68
2023/08/02 11:50:28;;;;;;;2.38;1.00;;;26.90;99.90;;;;;;8236941;28;20243;-67
2023/08/02 11:54:29;;;;;;;3.20;0.82;;;26.80;99.90;;;;;;8247124;28;20211;-67
2023/08/02 11:58:31;;;;;;;1.80;1.08;;;26.90;99.90;;;;;;8229026;28;20176;-68
2023/08/02 12:02:36;;;;;;;1.65;1.00;;;27.20;99.90;;;;;;8235565;28;20270;-67
2023/08/02 12:06:47;;;;;;;2.45;0.90;;;27.60;99.90;;;;;;8233780;28;20252;-66
2023/08/02 12:10:49;;;;;;;3.45;1.05;;;28.10;99.90;;;;;;8252780;28;20226;-66
2023/08/02 12:14:49;;;;;;;2.85;0.90;;;28.40;99.90;;;;;;8225775;28;20556;-67
2023/08/02 12:18:57;;;;;;;1.90;0.68;;;28.20;99.90;;;;;;8235710;28;20199;-67
2023/08/02 12:22:58;;;;;;;4.70;1.00;;;28.10;99.90;;;;;;8233158;28;20295;-66
2023/08/02 12:27:19;;;;;;;2.33;0.98;;;28.10;99.90;;;;;;8238188;28;20392;-68
2023/08/02 12:31:20;;;;;;;2.25;0.93;;;27.90;99.90;;;;;;8235618;28;20275;-69
2023/08/02 12:35:21;;;;;;;2.05;0.88;;;27.90;99.90;;;;;;8237867;28;20207;-68
2023/08/02 12:39:22;;;;;;;2.22;0.77;;;28.00;99.90;;;;;;8235077;28;20265;-68
2023/08/02 12:43:23;;;;;;;1.75;0.80;;;28.10;99.90;;;;;;8242420;28;20194;-67
2023/08/02 12:47:24;;;;;;;2.15;0.95;;;28.10;99.90;;;;;;8238917;28;20217;-68
2023/08/02 12:51:25;;;;;;;0.98;0.57;;;28.10;99.90;;;;;;8248443;28;20183;-67
2023/08/02 12:55:25;;;;;;;6.32;1.10;;;28.20;99.90;;;;;;8235609;28;20238;-67
2023/08/02 12:59:26;;;;;;;2.15;0.70;;;28.40;99.90;;;;;;8240216;28;20539;-66
2023/08/02 13:03:27;;;;;;;2.45;1.20;;;28.60;99.90;;;;;;8230676;28;20294;-66
2023/08/02 13:07:27;;;;;;;1.98;0.98;;;28.60;99.90;;;;;;8239777;28;20234;-67
2023/08/02 13:11:28;;;;;;;1.65;0.82;;;28.60;99.90;;;;;;8242041;28;20204;-67
2023/08/02 13:15:29;;;;;;;1.90;0.80;;;28.30;99.90;;;;;;8248161;28;20220;-67
2023/08/02 13:19:30;;;;;;;1.48;0.82;;;28.20;99.90;;;;;;8244294;28;20191;-68
2023/08/02 13:23:30;;;;;;;4.63;0.88;;;28.30;99.90;;;;;;8245551;28;20211;-66
2023/08/02 13:27:34;;;;;;;3.90;0.80;;;28.00;99.90;;;;;;8243991;28;20180;-68
2023/08/02 13:31:34;;;;;;;3.47;0.75;;;27.70;99.90;;;;;;8248663;28;20191;-68
2023/08/02 13:35:35;;;;;;;1.63;0.90;;;27.70;99.90;;;;;;8240211;28;20284;-66
2023/08/02 13:39:36;;;;;;;2.20;0.80;;;27.80;99.90;;;;;;8246773;28;20180;-68
2023/08/02 13:43:36;;;;;;;1.75;0.80;;;27.90;99.90;;;;;;8236473;28;20192;-67
2023/08/02 13:47:37;;;;;;;4.20;0.93;;;27.90;99.90;;;;;;8245859;28;20211;-66
2023/08/02 13:51:38;;;;;;;4.22;1.35;;;27.60;99.90;;;;;;8245373;28;20188;-67
2023/08/02 13:55:39;;;;;;;2.88;0.88;;;27.70;99.90;;;;;;8246907;28;20269;-67
2023/08/02 13:59:40;;;;;;;3.30;0.88;;;27.60;99.90;;;;;;8239940;28;20183;-66
2023/08/02 14:03:41;;;;;;;1.73;0.90;;;27.30;99.90;;;;;;8237816;28;20211;-68
2023/08/02 14:07:41;;;;;;;1.63;0.90;;;26.80;99.90;;;;;;8246148;28;20193;-65
2023/08/02 14:11:43;;;;;;;2.25;0.98;;;26.30;99.90;;;;;;8236858;28;20204;-66
2023/08/02 14:15:43;;;;;;;4.55;0.90;;;26.00;99.90;;;;;;8237870;28;20242;-61
2023/08/02 14:19:44;;;;;;;2.40;1.20;;;25.70;99.90;;;;;;8238560;28;20184;-64
2023/08/02 14:23:45;;;;;;;1.70;1.00;;;25.50;99.90;;;;;;8235376;28;20207;-66
2023/08/02 14:27:45;;;;;;;2.97;1.10;;;25.40;99.90;;;;;;8235946;28;20255;-62
2023/08/02 14:31:46;;;;;;;2.10;1.00;;;25.30;99.90;;;;;;8235289;28;20291;-64
2023/08/02 14:35:47;;;;;;;2.28;1.05;;;25.40;99.90;;;;;;8237850;28;20262;-64
2023/08/02 14:39:47;;;;;;;1.38;0.73;;;25.40;99.90;;;;;;8231698;28;20285;-64
2023/08/02 14:43:48;;;;;;;2.85;1.27;;;25.30;99.90;;;;;;8233088;28;20203;-62
2023/08/02 14:47:49;;;;;;;2.53;1.27;;;25.40;99.90;;;;;;8237437;28;20191;-66
2023/08/02 14:51:51;;;;;;;1.10;0.80;;;25.50;99.90;;;;;;8243642;28;20281;-62
2023/08/02 14:55:51;;;;;;;3.25;1.10;;;25.50;99.90;;;;;;8236131;28;20207;-62
2023/08/02 14:59:52;;;;;;;1.45;0.85;;;25.50;99.90;;;;;;8236710;28;20238;-64
2023/08/02 15:03:54;;;;;;;1.63;1.15;;;25.50;99.90;;;;;;8235055;28;20199;-62
2023/08/02 15:07:55;;;;;;;1.65;1.13;;;25.50;99.90;;;;;;8233356;28;20423;-65
2023/08/02 15:11:56;;;;;;;1.42;1.00;;;25.50;99.90;;;;;;8229672;28;20192;-66
2023/08/02 15:15:57;;;;;;;1.65;1.10;;;25.30;99.90;;;;;;8226382;28;20505;-62
2023/08/02 15:19:58;;;;;;;2.57;1.10;;;25.20;99.90;;;;;;8233173;28;20192;-66
2023/08/02 15:23:59;;;;;;;4.93;1.17;;;25.10;99.90;;;;;;8231691;28;20331;-65
2023/08/02 15:27:59;;;;;;;2.75;1.05;;;24.80;99.90;;;;;;8236421;28;20199;-63
2023/08/02 15:32:01;;;;;;;3.40;1.20;;;24.60;99.90;;;;;;8237676;28;20192;-64
2023/08/02 15:36:02;;;;;;;2.73;0.93;;;24.40;99.90;;;;;;8231491;28;20300;-63
2023/08/02 15:40:03;;;;;;;2.97;1.17;;;24.30;99.90;;;;;;8225636;28;20191;-65
2023/08/02 15:44:04;;;;;;;3.57;1.33;;;24.20;99.90;;;;;;8240665;28;20179;-67
2023/08/02 15:48:05;;;;;;;1.77;0.90;;;24.00;99.90;;;;;;8241320;28;20194;-67
2023/08/02 15:52:06;;;;;;;3.03;1.63;;;24.00;99.90;;;;;;8239894;28;20288;-65
2023/08/02 15:56:07;;;;;;;1.53;1.00;;;23.90;99.90;;;;;;8223913;28;20218;-66
2023/08/02 16:00:08;;;;;;;4.50;1.23;;;23.80;99.90;;;;;;8232655;28;20202;-65
2023/08/02 16:04:08;;;;;;;1.77;1.20;;;23.90;99.90;;;;;;8233349;28;20187;-66
2023/08/02 16:08:09;;;;;;;2.17;1.13;;;23.80;99.90;;;;;;8242940;28;20199;-65
2023/08/02 16:12:10;;;;;;;2.27;0.97;;;23.80;99.90;;;;;;8239875;28;20196;-66
2023/08/02 16:16:11;;;;;;;5.77;1.33;;;23.60;99.90;;;;;;8243331;28;20586;-66
2023/08/02 16:20:12;;;;;;;2.40;1.10;;;23.40;99.90;;;;;;8243958;28;20195;-67
2023/08/02 16:24:12;;;;;;;3.27;1.20;;;23.30;99.90;;;;;;8251853;28;20199;-66
2023/08/02 16:28:13;;;;;;;1.30;1.00;;;23.10;99.90;;;;;;8236795;28;20198;-67
2023/08/02 16:32:14;;;;;;;1.87;1.30;;;22.90;99.90;;;;;;8239543;28;20207;-66
2023/08/02 16:36:15;;;;;;;1.73;1.07;;;22.70;99.90;;;;;;8254123;28;20195;-66
2023/08/02 16:40:16;;;;;;;1.83;1.00;;;22.50;99.90;;;;;;8236825;28;20188;-65
2023/08/02 16:44:17;;;;;;;1.70;1.30;;;22.40;99.90;;;;;;8240657;28;20589;-66
2023/08/02 16:48:17;;;;;;;1.67;1.10;;;22.30;99.90;;;;;;8238134;28;20315;-67
2023/08/02 16:52:18;;;;;;;3.83;1.20;;;22.20;99.90;;;;;;8234008;28;20193;-66
2023/08/02 16:56:19;;;;;;;1.40;1.10;;;22.10;99.90;;;;;;8231250;28;20310;-67
2023/08/02 17:00:20;;;;;;;2.90;1.20;;;22.00;99.90;;;;;;8234098;28;20233;-65
2023/08/02 17:04:21;;;;;;;2.43;1.00;;;21.90;99.90;;;;;;8233096;28;20282;-66
2023/08/02 17:08:22;;;;;;;1.47;0.87;;;21.80;99.90;;;;;;8229442;28;20238;-67
2023/08/02 17:12:22;;;;;;;1.60;1.20;;;21.70;99.90;;;;;;8233891;28;20199;-64
2023/08/02 17:16:23;;;;;;;3.53;1.17;;;21.70;99.90;;;;;;8231707;28;20203;-65
2023/08/02 17:20:24;;;;;;;1.77;1.20;;;21.60;99.90;;;;;;8230845;28;20180;-66
2023/08/02 17:24:25;;;;;;;1.93;1.23;;;21.60;99.90;;;;;;8262360;28;20192;-66
2023/08/02 17:28:26;;;;;;;1.87;1.07;;;21.70;99.90;;;;;;8240452;28;20188;-63
2023/08/02 17:32:26;;;;;;;3.00;1.27;;;21.80;99.90;;;;;;8246526;28;21727;-65
2023/08/02 17:36:27;;;;;;;1.70;1.23;;;21.70;99.90;;;;;;8250193;28;20631;-64
2023/08/02 17:40:28;;;;;;;2.50;1.37;;;21.70;99.90;;;;;;8244682;28;21129;-62
2023/08/02 17:44:29;;;;;;;3.63;1.50;;;21.70;99.90;;;;;;8234959;28;20196;-63
2023/08/02 17:48:30;;;;;;;3.67;1.53;;;21.60;99.90;;;;;;8245526;28;20291;-60
2023/08/02 17:52:31;;;;;;;2.47;1.40;;;21.50;99.90;;;;;;8253176;28;20612;-63
2023/08/02 17:56:32;;;;;;;4.73;1.77;;;21.30;99.90;;;;;;8248270;28;20252;-63
2023/08/02 18:00:37;;;;;;;5.37;1.47;;;20.90;99.90;;;;;;8258765;28;20195;-61
2023/08/02 18:04:40;;;;;;;3.27;1.37;;;20.70;99.90;;;;;;8239528;28;20216;-62
2023/08/02 18:08:41;;;;;;;2.33;1.20;;;20.50;99.90;;;;;;8246120;28;20222;-60
2023/08/02 18:12:42;;;;;;;2.57;1.37;;;20.30;1.00;;;;;;8235274;28;20218;-65
2023/08/02 18:16:43;;;;;;;2.00;1.30;;;20.20;1.00;;;;;;8240549;28;20196;-60
2023/08/02 18:20:43;;;;;;;1.53;0.93;;;20.00;1.00;;;;;;8230734;28;20187;-65
2023/08/02 18:24:44;;;;;;;1.37;1.00;;;19.90;1.00;;;;;;8251859;28;20198;-63
2023/08/02 18:28:47;;;;;;;1.67;0.80;;;19.80;1.00;;;;;;8232719;28;20194;-63
2023/08/02 18:32:47;;;;;;;1.73;1.10;;;19.70;1.00;;;;;;8246241;28;20233;-61
2023/08/02 18:36:48;;;;;;;1.27;0.80;;;19.50;1.00;;;;;;8241749;28;20188;-60
2023/08/02 18:40:49;;;;;;;2.50;1.00;;;19.40;1.00;;;;;;8239129;28;20197;-62
2023/08/02 18:44:50;;;;;;;0.70;0.70;;;19.20;1.00;;;;;;8237129;28;20198;-61
2023/08/02 18:48:52;;;;;;;1.53;0.77;;;19.10;1.00;;;;;;8247491;28;20272;-60
2023/08/02 18:52:52;;;;;;;1.37;0.90;;;19.00;1.00;;;;;;8238191;28;20216;-59
2023/08/02 18:56:55;;;;;;;5.90;1.00;;;18.90;1.00;;;;;;8240974;28;20195;-63
2023/08/02 19:00:56;;;;;;;1.33;0.90;;;18.80;1.00;;;;;;8238275;28;20223;-64
2023/08/02 19:04:57;;;;;;;1.20;0.80;;;18.70;1.00;;;;;;8243637;28;20286;-61
2023/08/02 19:08:58;;;;;;;1.97;0.90;;;18.70;1.00;;;;;;8249235;28;20220;-61
2023/08/02 19:13:00;;;;;;;1.10;0.70;;;18.60;1.00;;;;;;8237651;28;20200;-63
2023/08/02 19:17:03;;;;;;;1.20;0.90;;;18.60;1.00;;;;;;8242568;28;20212;-61
2023/08/02 19:21:05;;;;;;;1.33;0.77;;;18.50;1.00;;;;;;8239707;28;20183;-60
2023/08/02 19:25:07;;;;;;;2.10;0.83;;;18.50;1.00;;;;;;8236875;28;20199;-60
2023/08/02 19:29:08;;;;;;;0.80;0.80;;;18.50;1.00;;;;;;8241198;28;20270;-60
2023/08/02 19:33:13;;;;;;;1.03;0.60;;;18.40;1.00;;;;;;8251716;28;20275;-62
2023/08/02 19:37:19;;;;;;;2.00;0.93;;;18.30;1.00;;;;;;8238518;28;20187;-60
2023/08/02 19:41:26;;;;;;;2.43;1.00;;;18.20;1.00;;;;;;8243908;28;20187;-62
2023/08/02 19:45:27;;;;;;;0.97;0.60;;;18.20;1.00;;;;;;8232877;28;20322;-59
2023/08/02 19:49:28;;;;;;;3.10;0.90;;;18.10;1.00;;;;;;8246901;28;20196;-60
2023/08/02 19:53:29;;;;;;;1.63;0.80;;;18.10;1.00;;;;;;8236949;28;20258;-61
2023/08/02 19:57:42;;;;;;;1.00;0.60;;;18.00;1.00;;;;;;8232603;28;21613;-63
2023/08/02 20:01:52;;;;;;;1.20;0.57;;;17.90;1.00;;;;;;8243223;28;20195;-59
2023/08/02 20:06:03;;;;;;;2.13;0.90;;;17.80;1.00;;;;;;8242472;28;20218;-59
2023/08/02 20:10:32;;;;;;;2.00;0.80;;;17.70;1.00;;;;;;8241977;28;20212;-63
2023/08/02 20:14:33;;;;;;;1.27;0.60;;;17.60;1.00;;;;;;8233985;28;20354;-60
2023/08/02 20:18:35;;;;;;;2.03;0.80;;;17.60;1.00;;;;;;8236088;28;20346;-60
2023/08/02 20:22:36;;;;;;;1.17;0.60;;;17.70;1.00;;;;;;8258520;28;20574;-59
2023/08/02 20:26:37;;;;;;;0.80;0.70;;;17.70;1.00;;;;;;8242380;28;20219;-61
2023/08/02 20:30:38;;;;;;;1.23;0.83;;;17.90;1.00;;;;;;8237175;28;20220;-61
2023/08/02 20:34:41;;;;;;;0.50;0.40;;;18.00;1.00;;;;;;8229173;28;20558;-61
2023/08/02 20:38:46;;;;;;;3.33;0.50;;;18.10;1.00;;;;;;8247028;28;20196;-61
2023/08/02 20:42:46;;;;;;;1.40;0.73;;;18.10;1.00;;;;;;8231948;28;20192;-60
2023/08/02 20:46:49;;;;;;;0.73;0.47;;;18.20;1.00;;;;;;8235587;28;20273;-60
2023/08/02 20:50:50;;;;;;;1.27;0.70;;;18.30;7.10;;;;;;8240361;28;20198;-62
2023/08/02 20:54:51;;;;;;;1.00;0.70;;;18.30;94.30;;;;;;8239088;28;20228;-62
2023/08/02 20:58:52;;;;;;;3.57;0.90;;;18.20;99.90;;;;;;8231631;28;20212;-62
2023/08/02 21:02:53;;;;;;;1.57;0.90;;;18.20;99.90;;;;;;8226237;28;20246;-63